Time,TemperatureF,DewpointF,PressureIn,WindDirection,WindDirectionDegrees,WindSpeedMPH,WindSpeedGustMPH,Humidity,HourlyPrecipIn,Conditions,Clouds,dailyrainin,SoftwareType,DateUTC
2013-04-25 00:05:00,42.8,29.9,29.80,East,90,0.0,-999.0,60,-99.99,,,0.00,Acu-Link.com,2013-04-25 07:05:00,
2013-04-25 00:20:00,42.8,30.3,29.81,East,90,0.0,-999.0,61,-99.99,,,0.00,Acu-Link.com,2013-04-25 07:20:00,
2013-04-25 00:35:00,42.8,31.1,29.81,ESE,112,1.6,-999.0,63,-99.99,,,0.00,Acu-Link.com,2013-04-25 07:35:00,
2013-04-25 00:51:00,42.8,31.5,29.81,NE,45,0.0,-999.0,64,-99.99,,,0.00,Acu-Link.com,2013-04-25 07:51:00,
2013-04-25 01:06:00,42.8,31.9,29.82,NNE,22,0.0,-999.0,65,-99.99,,,0.00,Acu-Link.com,2013-04-25 08:06:00,
2013-04-25 01:21:00,41.0,30.2,29.82,ENE,67,0.0,-999.0,65,-99.99,,,0.00,Acu-Link.com,2013-04-25 08:21:00,
2013-04-25 01:36:00,41.0,30.9,29.82,NNE,22,0.0,-999.0,67,-99.99,,,0.00,Acu-Link.com,2013-04-25 08:36:00,
2013-04-25 01:51:00,41.0,31.3,29.82,NE,45,0.0,-999.0,68,-99.99,,,0.00,Acu-Link.com,2013-04-25 08:51:00,
2013-04-25 02:06:00,41.0,31.3,29.82,NNE,22,0.0,-999.0,68,-99.99,,,0.00,Acu-Link.com,2013-04-25 09:06:00,
2013-04-25 02:21:00,41.0,31.6,29.82,NE,45,0.0,-999.0,69,-99.99,,,0.00,Acu-Link.com,2013-04-25 09:21:00,
2013-04-25 02:37:00,39.2,30.3,29.82,NE,45,0.0,-999.0,70,-99.99,,,0.00,Acu-Link.com,2013-04-25 09:37:00,
2013-04-25 02:52:00,39.2,30.6,29.81,NE,45,0.0,-999.0,71,-99.99,,,0.00,Acu-Link.com,2013-04-25 09:52:00,
2013-04-25 03:07:00,37.4,29.2,29.82,NE,45,0.0,-999.0,72,-99.99,,,0.00,Acu-Link.com,2013-04-25 10:07:00,
2013-04-25 03:22:00,37.4,29.6,29.82,NE,45,0.0,-999.0,73,-99.99,,,0.00,Acu-Link.com,2013-04-25 10:22:00,
2013-04-25 03:37:00,37.4,29.9,29.82,NE,45,0.0,-999.0,74,-99.99,,,0.00,Acu-Link.com,2013-04-25 10:37:00,
2013-04-25 03:53:00,37.4,29.9,29.82,NE,45,0.0,-999.0,74,-99.99,,,0.00,Acu-Link.com,2013-04-25 10:53:00,
2013-04-25 04:08:00,37.4,29.9,29.81,NE,45,0.0,-999.0,74,-99.99,,,0.00,Acu-Link.com,2013-04-25 11:08:00,
2013-04-25 04:23:00,35.6,28.1,29.81,ENE,67,0.0,-999.0,74,-99.99,,,0.00,Acu-Link.com,2013-04-25 11:23:00,
2013-04-25 04:38:00,35.6,28.5,29.81,ENE,67,0.0,-999.0,75,-99.99,,,0.00,Acu-Link.com,2013-04-25 11:38:00,
2013-04-25 04:54:00,35.6,29.4,29.81,ENE,67,0.0,-999.0,78,-99.99,,,0.00,Acu-Link.com,2013-04-25 11:54:00,
2013-04-25 05:09:00,33.8,28.0,29.82,SW,225,0.0,-999.0,79,-99.99,,,0.00,Acu-Link.com,2013-04-25 12:09:00,
2013-04-25 05:24:00,33.8,28.0,29.82,East,90,0.0,-999.0,79,-99.99,,,0.00,Acu-Link.com,2013-04-25 12:24:00,
2013-04-25 05:39:00,33.8,28.6,29.81,South,180,0.0,-999.0,81,-99.99,,,0.00,Acu-Link.com,2013-04-25 12:39:00,
2013-04-25 05:54:00,32.0,27.4,29.81,ENE,67,0.0,-999.0,83,-99.99,,,0.00,Acu-Link.com,2013-04-25 12:54:00,
2013-04-25 06:09:00,32.0,28.0,29.81,NE,45,0.0,-999.0,85,-99.99,,,0.00,Acu-Link.com,2013-04-25 13:09:00,
2013-04-25 06:25:00,32.0,28.0,29.81,ENE,67,0.0,-999.0,85,-99.99,,,0.00,Acu-Link.com,2013-04-25 13:25:00,
2013-04-25 06:40:00,32.0,28.3,29.81,SSW,202,0.0,-999.0,86,-99.99,,,0.00,Acu-Link.com,2013-04-25 13:40:00,
2013-04-25 06:55:00,32.0,28.3,29.81,East,90,0.0,-999.0,86,-99.99,,,0.00,Acu-Link.com,2013-04-25 13:55:00,
2013-04-25 07:10:00,33.8,30.1,29.81,SSW,202,0.0,-999.0,86,-99.99,,,0.00,Acu-Link.com,2013-04-25 14:10:00,
2013-04-25 07:25:00,35.6,31.5,29.82,SSW,202,0.0,-999.0,85,-99.99,,,0.00,Acu-Link.com,2013-04-25 14:25:00,
2013-04-25 07:41:00,37.4,32.4,29.82,SW,225,0.0,-999.0,82,-99.99,,,0.00,Acu-Link.com,2013-04-25 14:41:00,
2013-04-25 07:56:00,37.4,32.1,29.82,South,180,0.0,-999.0,81,-99.99,,,0.00,Acu-Link.com,2013-04-25 14:56:00,
2013-04-25 08:11:00,41.0,34.7,29.82,SE,135,0.0,-999.0,78,-99.99,,,0.00,Acu-Link.com,2013-04-25 15:11:00,
2013-04-25 08:26:00,42.8,35.4,29.82,SSE,157,0.0,-999.0,75,-99.99,,,0.00,Acu-Link.com,2013-04-25 15:26:00,
2013-04-25 08:41:00,44.6,36.5,29.83,East,90,0.0,-999.0,73,-99.99,,,0.00,Acu-Link.com,2013-04-25 15:41:00,
2013-04-25 08:56:00,44.6,34.7,29.83,ENE,67,0.0,-999.0,68,-99.99,,,0.00,Acu-Link.com,2013-04-25 15:56:00,
2013-04-25 09:12:00,46.4,35.7,29.83,East,90,0.0,-999.0,66,-99.99,,,0.00,Acu-Link.com,2013-04-25 16:12:00,
2013-04-25 09:27:00,46.4,34.5,29.83,SE,135,0.0,-999.0,63,-99.99,,,0.00,Acu-Link.com,2013-04-25 16:27:00,
2013-04-25 09:42:00,48.2,35.8,29.83,ENE,67,1.6,-999.0,62,-99.99,,,0.00,Acu-Link.com,2013-04-25 16:42:00,
2013-04-25 09:58:00,50.0,35.4,29.83,SW,225,0.0,-999.0,57,-99.99,,,0.00,Acu-Link.com,2013-04-25 16:58:00,
2013-04-25 10:13:00,50.0,35.8,29.83,East,90,2.7,-999.0,58,-99.99,,,0.00,Acu-Link.com,2013-04-25 17:13:00,
2013-04-25 10:28:00,51.8,36.6,29.83,SSW,202,1.1,-999.0,56,-99.99,,,0.00,Acu-Link.com,2013-04-25 17:28:00,
2013-04-25 10:43:00,51.8,36.2,29.83,SE,135,1.6,-999.0,55,-99.99,,,0.00,Acu-Link.com,2013-04-25 17:43:00,
2013-04-25 10:58:00,51.8,35.7,29.83,SE,135,2.0,-999.0,54,-99.99,,,0.00,Acu-Link.com,2013-04-25 17:58:00,
2013-04-25 11:14:00,53.6,35.9,29.83,NNE,22,1.6,-999.0,51,-99.99,,,0.00,Acu-Link.com,2013-04-25 18:14:00,
2013-04-25 11:29:00,55.4,35.5,29.82,SSW,202,3.1,-999.0,47,-99.99,,,0.00,Acu-Link.com,2013-04-25 18:29:00,
2013-04-25 11:44:00,55.4,34.4,29.82,ENE,67,2.0,-999.0,45,-99.99,,,0.00,Acu-Link.com,2013-04-25 18:44:00,
2013-04-25 11:59:00,57.2,36.1,29.82,WNW,292,1.6,-999.0,45,-99.99,,,0.00,Acu-Link.com,2013-04-25 18:59:00,
2013-04-25 12:14:00,55.4,36.6,29.82,WSW,247,1.1,-999.0,49,-99.99,,,0.00,Acu-Link.com,2013-04-25 19:14:00,
2013-04-25 12:29:00,59.0,37.7,29.82,NNE,22,2.7,-999.0,45,-99.99,,,0.00,Acu-Link.com,2013-04-25 19:29:00,
2013-04-25 12:44:00,55.4,35.5,29.82,West,270,3.1,-999.0,47,-99.99,,,0.00,Acu-Link.com,2013-04-25 19:44:00,
2013-04-25 13:00:00,60.8,38.2,29.82,WNW,292,5.1,-999.0,43,-99.99,,,0.00,Acu-Link.com,2013-04-25 20:00:00,
2013-04-25 13:15:00,62.6,37.9,29.81,East,90,2.7,-999.0,40,-99.99,,,0.00,Acu-Link.com,2013-04-25 20:15:00,
2013-04-25 13:30:00,60.8,37.6,29.81,NNE,22,1.6,-999.0,42,-99.99,,,0.00,Acu-Link.com,2013-04-25 20:30:00,
2013-04-25 13:45:00,60.8,37.6,29.81,South,180,0.0,-999.0,42,-99.99,,,0.00,Acu-Link.com,2013-04-25 20:45:00,
2013-04-25 14:01:00,66.2,39.2,29.80,SW,225,3.6,-999.0,37,-99.99,,,0.00,Acu-Link.com,2013-04-25 21:01:00,
2013-04-25 14:16:00,62.6,36.0,29.80,South,180,1.6,-999.0,37,-99.99,,,0.00,Acu-Link.com,2013-04-25 21:16:00,
2013-04-25 14:31:00,62.6,37.3,29.80,WNW,292,2.7,-999.0,39,-99.99,,,0.00,Acu-Link.com,2013-04-25 21:31:00,
2013-04-25 14:46:00,62.6,37.9,29.79,ESE,112,2.0,-999.0,40,-99.99,,,0.00,Acu-Link.com,2013-04-25 21:46:00,
2013-04-25 15:01:00,60.8,35.7,29.79,ENE,67,2.7,-999.0,39,-99.99,,,0.00,Acu-Link.com,2013-04-25 22:01:00,
2013-04-25 15:16:00,62.6,38.6,29.80,East,90,1.6,-999.0,41,-99.99,,,0.00,Acu-Link.com,2013-04-25 22:16:00,
2013-04-25 15:31:00,59.0,42.9,29.80,SE,135,0.0,-999.0,55,-99.99,,,0.00,Acu-Link.com,2013-04-25 22:31:00,
2013-04-25 15:47:00,59.0,41.4,29.80,East,90,2.7,-999.0,52,-99.99,,,0.00,Acu-Link.com,2013-04-25 22:47:00,
2013-04-25 16:02:00,59.0,40.9,29.80,SW,225,2.7,-999.0,51,-99.99,,,0.00,Acu-Link.com,2013-04-25 23:02:00,
2013-04-25 16:17:00,59.0,40.4,29.80,SW,225,1.6,-999.0,50,-99.99,,,0.00,Acu-Link.com,2013-04-25 23:17:00,
2013-04-25 16:32:00,60.8,42.0,29.81,West,270,0.0,-999.0,50,-99.99,,,0.00,Acu-Link.com,2013-04-25 23:32:00,
2013-04-25 16:47:00,60.8,41.5,29.81,SW,225,1.6,-999.0,49,-99.99,,,0.00,Acu-Link.com,2013-04-25 23:47:00,
2013-04-25 17:02:00,59.0,40.9,29.80,ESE,112,0.0,-999.0,51,-99.99,,,0.00,Acu-Link.com,2013-04-26 00:02:00,
2013-04-25 17:17:00,60.8,41.5,29.79,SSE,157,0.0,-999.0,49,-99.99,,,0.00,Acu-Link.com,2013-04-26 00:17:00,
2013-04-25 17:33:00,60.8,42.0,29.79,ESE,112,0.0,-999.0,50,-99.99,,,0.00,Acu-Link.com,2013-04-26 00:33:00,
2013-04-25 17:48:00,59.0,42.9,29.79,NW,315,0.0,-999.0,55,-99.99,,,0.00,Acu-Link.com,2013-04-26 00:48:00,
2013-04-25 18:03:00,59.0,40.9,29.79,SSE,157,1.1,-999.0,51,-99.99,,,0.00,Acu-Link.com,2013-04-26 01:03:00,
2013-04-25 18:18:00,59.0,40.4,29.78,ESE,112,2.0,-999.0,50,-99.99,,,0.00,Acu-Link.com,2013-04-26 01:18:00,
2013-04-25 18:34:00,59.0,40.4,29.78,WNW,292,2.7,-999.0,50,-99.99,,,0.00,Acu-Link.com,2013-04-26 01:34:00,
2013-04-25 18:49:00,59.0,40.9,29.79,ESE,112,0.0,-999.0,51,-99.99,,,0.00,Acu-Link.com,2013-04-26 01:49:00,
2013-04-25 19:04:00,59.0,41.4,29.79,ESE,112,0.0,-999.0,52,-99.99,,,0.00,Acu-Link.com,2013-04-26 02:04:00,
2013-04-25 19:19:00,57.2,41.6,29.79,ESE,112,0.0,-999.0,56,-99.99,,,0.00,Acu-Link.com,2013-04-26 02:19:00,
2013-04-25 19:34:00,55.4,40.0,29.78,NE,45,0.0,-999.0,56,-99.99,,,0.00,Acu-Link.com,2013-04-26 02:34:00,
2013-04-25 19:49:00,55.4,40.9,29.78,ESE,112,0.0,-999.0,58,-99.99,,,0.00,Acu-Link.com,2013-04-26 02:49:00,
2013-04-25 20:05:00,53.6,39.6,29.79,NNE,22,0.0,-999.0,59,-99.99,,,0.00,Acu-Link.com,2013-04-26 03:05:00,
2013-04-25 20:20:00,53.6,40.5,29.79,ESE,112,0.0,-999.0,61,-99.99,,,0.00,Acu-Link.com,2013-04-26 03:20:00,
2013-04-25 20:35:00,53.6,41.3,29.79,ENE,67,0.0,-999.0,63,-99.99,,,0.00,Acu-Link.com,2013-04-26 03:35:00,
2013-04-25 20:50:00,51.8,40.0,29.80,NE,45,0.0,-999.0,64,-99.99,,,0.00,Acu-Link.com,2013-04-26 03:50:00,
2013-04-25 21:05:00,51.8,40.4,29.81,NE,45,0.0,-999.0,65,-99.99,,,0.00,Acu-Link.com,2013-04-26 04:05:00,
2013-04-25 21:20:00,51.8,40.8,29.80,NE,45,0.0,-999.0,66,-99.99,,,0.00,Acu-Link.com,2013-04-26 04:20:00,
2013-04-25 21:36:00,51.8,40.8,29.81,NE,45,0.0,-999.0,66,-99.99,,,0.00,Acu-Link.com,2013-04-26 04:36:00,
2013-04-25 21:51:00,51.8,41.2,29.81,NE,45,0.0,-999.0,67,-99.99,,,0.00,Acu-Link.com,2013-04-26 04:51:00,
2013-04-25 22:06:00,50.0,40.2,29.82,NNW,337,0.0,-999.0,69,-99.99,,,0.00,Acu-Link.com,2013-04-26 05:06:00,
2013-04-25 22:21:00,50.0,40.6,29.82,East,90,0.0,-999.0,70,-99.99,,,0.00,Acu-Link.com,2013-04-26 05:21:00,
2013-04-25 22:36:00,50.0,40.6,29.83,SW,225,0.0,-999.0,70,-99.99,,,0.00,Acu-Link.com,2013-04-26 05:36:00,
2013-04-25 22:51:00,50.0,41.3,29.83,SSE,157,0.0,-999.0,72,-99.99,,,0.00,Acu-Link.com,2013-04-26 05:51:00,
2013-04-25 23:06:00,50.0,39.9,29.83,NE,45,0.0,-999.0,68,-99.99,,,0.00,Acu-Link.com,2013-04-26 06:06:00,
2013-04-25 23:21:00,50.0,39.1,29.84,NNE,22,0.0,-999.0,66,-99.99,,,0.00,Acu-Link.com,2013-04-26 06:21:00,
2013-04-25 23:37:00,50.0,38.7,29.84,NE,45,0.0,-999.0,65,-99.99,,,0.00,Acu-Link.com,2013-04-26 06:37:00,
2013-04-25 23:52:00,50.0,38.7,51.41,ENE,67,0.0,-999.0,65,-99.99,,,0.00,Acu-Link.com,2013-04-26 06:52:00,